sensor_id;sensor_type;location;lat;lon;timestamp;pressure;altitude;pressure_sealevel;temperature
78859;BMP280;68210;52.032;4.634;2023-10-31T00:01:26;99475.25;;;15.04
78859;BMP280;68210;52.032;4.634;2023-10-31T00:03:26;99483.81;;;15.03
78859;BMP280;68210;52.032;4.634;2023-10-31T00:05:26;99478.59;;;14.86
78859;BMP280;68210;52.032;4.634;2023-10-31T00:07:26;99480.78;;;14.97
78859;BMP280;68210;52.032;4.634;2023-10-31T00:09:27;99472.75;;;14.87
78859;BMP280;68210;52.032;4.634;2023-10-31T00:11:27;99478.16;;;14.57
78859;BMP280;68210;52.032;4.634;2023-10-31T00:13:27;99481.63;;;14.61
78859;BMP280;68210;52.032;4.634;2023-10-31T00:15:28;99488.47;;;14.43
78859;BMP280;68210;52.032;4.634;2023-10-31T00:17:30;99484.53;;;14.48
78859;BMP280;68210;52.032;4.634;2023-10-31T00:19:31;99479.06;;;14.48
78859;BMP280;68210;52.032;4.634;2023-10-31T00:21:31;99485.66;;;14.50
78859;BMP280;68210;52.032;4.634;2023-10-31T00:23:32;99477.38;;;14.60
78859;BMP280;68210;52.032;4.634;2023-10-31T00:25:32;99478.97;;;14.55
78859;BMP280;68210;52.032;4.634;2023-10-31T00:27:32;99478.19;;;14.54
78859;BMP280;68210;52.032;4.634;2023-10-31T00:29:32;99478.97;;;14.55
78859;BMP280;68210;52.032;4.634;2023-10-31T00:31:33;99484.34;;;14.61
78859;BMP280;68210;52.032;4.634;2023-10-31T00:33:35;99480.44;;;14.62
78859;BMP280;68210;52.032;4.634;2023-10-31T00:35:35;99485.19;;;14.58
78859;BMP280;68210;52.032;4.634;2023-10-31T00:37:35;99489.44;;;14.59
78859;BMP280;68210;52.032;4.634;2023-10-31T00:39:36;99498.19;;;14.77
78859;BMP280;68210;52.032;4.634;2023-10-31T00:41:36;99491.59;;;14.75
78859;BMP280;68210;52.032;4.634;2023-10-31T00:43:36;99487.56;;;14.86
78859;BMP280;68210;52.032;4.634;2023-10-31T00:45:36;99491.03;;;14.90
78859;BMP280;68210;52.032;4.634;2023-10-31T00:47:37;99501.03;;;15.00
78859;BMP280;68210;52.032;4.634;2023-10-31T00:49:37;99502.47;;;15.08
78859;BMP280;68210;52.032;4.634;2023-10-31T00:51:37;99495.22;;;14.98
78859;BMP280;68210;52.032;4.634;2023-10-31T00:53:38;99498.72;;;14.98
78859;BMP280;68210;52.032;4.634;2023-10-31T00:55:38;99504.84;;;15.06
78859;BMP280;68210;52.032;4.634;2023-10-31T00:57:38;99502.06;;;15.13
78859;BMP280;68210;52.032;4.634;2023-10-31T00:59:38;99504.53;;;14.67
78859;BMP280;68210;52.032;4.634;2023-10-31T01:01:39;99503.56;;;14.84
78859;BMP280;68210;52.032;4.634;2023-10-31T01:03:39;99500.59;;;14.72
78859;BMP280;68210;52.032;4.634;2023-10-31T01:05:40;99497.00;;;14.78
78859;BMP280;68210;52.032;4.634;2023-10-31T01:07:40;99506.09;;;14.68
78859;BMP280;68210;52.032;4.634;2023-10-31T01:09:40;99510.00;;;14.67
78859;BMP280;68210;52.032;4.634;2023-10-31T01:11:41;99507.72;;;14.62
78859;BMP280;68210;52.032;4.634;2023-10-31T01:13:41;99509.94;;;14.71
78859;BMP280;68210;52.032;4.634;2023-10-31T01:15:41;99512.78;;;14.64
78859;BMP280;68210;52.032;4.634;2023-10-31T01:17:42;99516.44;;;14.51
78859;BMP280;68210;52.032;4.634;2023-10-31T01:19:42;99517.47;;;14.24
78859;BMP280;68210;52.032;4.634;2023-10-31T01:21:42;99518.97;;;14.28
78859;BMP280;68210;52.032;4.634;2023-10-31T01:23:42;99522.03;;;14.33
78859;BMP280;68210;52.032;4.634;2023-10-31T01:25:43;99526.63;;;14.43
78859;BMP280;68210;52.032;4.634;2023-10-31T01:27:43;99525.72;;;14.57
78859;BMP280;68210;52.032;4.634;2023-10-31T01:29:43;99534.59;;;14.64
78859;BMP280;68210;52.032;4.634;2023-10-31T01:31:44;99527.22;;;14.61
78859;BMP280;68210;52.032;4.634;2023-10-31T01:33:45;99534.09;;;14.72
78859;BMP280;68210;52.032;4.634;2023-10-31T01:35:45;99544.94;;;14.79
78859;BMP280;68210;52.032;4.634;2023-10-31T01:37:46;99530.28;;;14.66
78859;BMP280;68210;52.032;4.634;2023-10-31T01:39:46;99527.59;;;14.63
78859;BMP280;68210;52.032;4.634;2023-10-31T01:41:46;99533.84;;;14.60
78859;BMP280;68210;52.032;4.634;2023-10-31T01:43:47;99536.50;;;14.67
78859;BMP280;68210;52.032;4.634;2023-10-31T01:45:48;99548.13;;;14.71
78859;BMP280;68210;52.032;4.634;2023-10-31T01:47:49;99557.84;;;14.75
78859;BMP280;68210;52.032;4.634;2023-10-31T01:49:51;99546.53;;;14.77
78859;BMP280;68210;52.032;4.634;2023-10-31T01:51:52;99561.31;;;14.79
78859;BMP280;68210;52.032;4.634;2023-10-31T01:53:52;99568.38;;;14.77
78859;BMP280;68210;52.032;4.634;2023-10-31T01:55:54;99560.19;;;14.73
78859;BMP280;68210;52.032;4.634;2023-10-31T01:57:56;99565.03;;;14.92
78859;BMP280;68210;52.032;4.634;2023-10-31T01:59:56;99572.84;;;14.93
78859;BMP280;68210;52.032;4.634;2023-10-31T02:01:57;99572.28;;;14.72
78859;BMP280;68210;52.032;4.634;2023-10-31T02:03:57;99574.47;;;14.88
78859;BMP280;68210;52.032;4.634;2023-10-31T02:05:58;99581.25;;;15.06
78859;BMP280;68210;52.032;4.634;2023-10-31T02:07:59;99571.06;;;15.13
78859;BMP280;68210;52.032;4.634;2023-10-31T02:09:59;99576.50;;;15.17
78859;BMP280;68210;52.032;4.634;2023-10-31T02:11:59;99577.88;;;14.95
78859;BMP280;68210;52.032;4.634;2023-10-31T02:14:01;99583.63;;;15.04
78859;BMP280;68210;52.032;4.634;2023-10-31T02:16:01;99588.91;;;15.21
78859;BMP280;68210;52.032;4.634;2023-10-31T02:18:02;99573.34;;;15.18
78859;BMP280;68210;52.032;4.634;2023-10-31T02:20:03;99572.47;;;15.24
78859;BMP280;68210;52.032;4.634;2023-10-31T02:22:04;99587.44;;;15.13
78859;BMP280;68210;52.032;4.634;2023-10-31T02:24:04;99579.31;;;15.10
78859;BMP280;68210;52.032;4.634;2023-10-31T02:26:05;99590.78;;;14.91
78859;BMP280;68210;52.032;4.634;2023-10-31T02:28:06;99579.13;;;14.90
78859;BMP280;68210;52.032;4.634;2023-10-31T02:30:07;99590.78;;;14.91
78859;BMP280;68210;52.032;4.634;2023-10-31T02:32:07;99584.75;;;14.73
78859;BMP280;68210;52.032;4.634;2023-10-31T02:34:07;99587.41;;;14.80
78859;BMP280;68210;52.032;4.634;2023-10-31T02:36:08;99589.31;;;14.83
78859;BMP280;68210;52.032;4.634;2023-10-31T02:38:08;99591.00;;;14.70
78859;BMP280;68210;52.032;4.634;2023-10-31T02:40:09;99588.19;;;14.81
78859;BMP280;68210;52.032;4.634;2023-10-31T02:42:09;99591.56;;;14.91
78859;BMP280;68210;52.032;4.634;2023-10-31T02:44:10;99593.16;;;14.89
78859;BMP280;68210;52.032;4.634;2023-10-31T02:46:10;99598.16;;;14.94
78859;BMP280;68210;52.032;4.634;2023-10-31T02:48:12;99604.88;;;14.46
78859;BMP280;68210;52.032;4.634;2023-10-31T02:50:12;99607.84;;;14.62
78859;BMP280;68210;52.032;4.634;2023-10-31T02:52:13;99601.72;;;14.51
78859;BMP280;68210;52.032;4.634;2023-10-31T02:54:13;99613.75;;;14.57
78859;BMP280;68210;52.032;4.634;2023-10-31T02:56:13;99606.22;;;14.68
78859;BMP280;68210;52.032;4.634;2023-10-31T02:58:14;99613.47;;;14.45
78859;BMP280;68210;52.032;4.634;2023-10-31T03:00:14;99609.03;;;14.61
78859;BMP280;68210;52.032;4.634;2023-10-31T03:02:15;99612.84;;;14.70
78859;BMP280;68210;52.032;4.634;2023-10-31T03:04:15;99618.84;;;14.52
78859;BMP280;68210;52.032;4.634;2023-10-31T03:06:16;99624.72;;;14.50
78859;BMP280;68210;52.032;4.634;2023-10-31T03:08:16;99625.13;;;14.49
78859;BMP280;68210;52.032;4.634;2023-10-31T03:10:20;99624.41;;;14.41
78859;BMP280;68210;52.032;4.634;2023-10-31T03:12:21;99623.16;;;14.53
78859;BMP280;68210;52.032;4.634;2023-10-31T03:14:21;99633.38;;;14.42
78859;BMP280;68210;52.032;4.634;2023-10-31T03:16:22;99633.72;;;14.47
78859;BMP280;68210;52.032;4.634;2023-10-31T03:18:22;99633.19;;;14.62
78859;BMP280;68210;52.032;4.634;2023-10-31T03:20:23;99637.75;;;14.72
78859;BMP280;68210;52.032;4.634;2023-10-31T03:22:23;99632.38;;;14.65
78859;BMP280;68210;52.032;4.634;2023-10-31T03:24:24;99633.19;;;14.62
78859;BMP280;68210;52.032;4.634;2023-10-31T03:26:24;99643.56;;;14.78
78859;BMP280;68210;52.032;4.634;2023-10-31T03:28:24;99637.91;;;14.58
78859;BMP280;68210;52.032;4.634;2023-10-31T03:30:25;99647.16;;;14.68
78859;BMP280;68210;52.032;4.634;2023-10-31T03:32:25;99650.59;;;14.75
78859;BMP280;68210;52.032;4.634;2023-10-31T03:34:26;99655.66;;;14.73
78859;BMP280;68210;52.032;4.634;2023-10-31T03:36:26;99651.50;;;14.62
78859;BMP280;68210;52.032;4.634;2023-10-31T03:38:27;99649.16;;;14.64
78859;BMP280;68210;52.032;4.634;2023-10-31T03:40:27;99644.09;;;14.62
78859;BMP280;68210;52.032;4.634;2023-10-31T03:42:27;99649.44;;;14.73
78859;BMP280;68210;52.032;4.634;2023-10-31T03:44:28;99656.44;;;14.77
78859;BMP280;68210;52.032;4.634;2023-10-31T03:46:28;99653.22;;;14.86
78859;BMP280;68210;52.032;4.634;2023-10-31T03:48:28;99649.31;;;14.87
78859;BMP280;68210;52.032;4.634;2023-10-31T03:50:28;99651.22;;;14.50
78859;BMP280;68210;52.032;4.634;2023-10-31T03:52:29;99646.81;;;14.66
78859;BMP280;68210;52.032;4.634;2023-10-31T03:54:30;99648.72;;;14.65
78859;BMP280;68210;52.032;4.634;2023-10-31T03:56:30;99657.97;;;14.78
78859;BMP280;68210;52.032;4.634;2023-10-31T03:58:30;99650.97;;;14.77
78859;BMP280;68210;52.032;4.634;2023-10-31T04:00:31;99651.25;;;14.86
78859;BMP280;68210;52.032;4.634;2023-10-31T04:02:31;99657.25;;;14.74
78859;BMP280;68210;52.032;4.634;2023-10-31T04:04:31;99657.66;;;14.69
78859;BMP280;68210;52.032;4.634;2023-10-31T04:06:32;99668.16;;;14.74
78859;BMP280;68210;52.032;4.634;2023-10-31T04:08:32;99655.66;;;14.73
78859;BMP280;68210;52.032;4.634;2023-10-31T04:10:32;99654.97;;;14.66
78859;BMP280;68210;52.032;4.634;2023-10-31T04:12:33;99653.44;;;14.61
78859;BMP280;68210;52.032;4.634;2023-10-31T04:14:33;99653.97;;;14.50
78859;BMP280;68210;52.032;4.634;2023-10-31T04:16:41;99665.44;;;14.24
78859;BMP280;68210;52.032;4.634;2023-10-31T04:18:45;99665.47;;;14.17
78859;BMP280;68210;52.032;4.634;2023-10-31T04:20:46;99674.00;;;14.26
78859;BMP280;68210;52.032;4.634;2023-10-31T04:22:46;99678.28;;;14.27
78859;BMP280;68210;52.032;4.634;2023-10-31T04:24:46;99677.19;;;14.18
78859;BMP280;68210;52.032;4.634;2023-10-31T04:26:47;99692.97;;;14.40
78859;BMP280;68210;52.032;4.634;2023-10-31T04:28:47;99689.50;;;14.36
78859;BMP280;68210;52.032;4.634;2023-10-31T04:30:47;99682.41;;;14.45
78859;BMP280;68210;52.032;4.634;2023-10-31T04:32:48;99682.34;;;14.52
78859;BMP280;68210;52.032;4.634;2023-10-31T04:34:48;99678.97;;;14.38
78859;BMP280;68210;52.032;4.634;2023-10-31T04:36:48;99679.31;;;14.43
78859;BMP280;68210;52.032;4.634;2023-10-31T04:38:49;99691.00;;;14.44
78859;BMP280;68210;52.032;4.634;2023-10-31T04:40:49;99698.94;;;14.21
78859;BMP280;68210;52.032;4.634;2023-10-31T04:42:49;99694.94;;;14.39
78859;BMP280;68210;52.032;4.634;2023-10-31T04:44:50;99692.72;;;14.17
78859;BMP280;68210;52.032;4.634;2023-10-31T04:46:50;99697.81;;;14.19
78859;BMP280;68210;52.032;4.634;2023-10-31T04:48:50;99699.47;;;13.96
78859;BMP280;68210;52.032;4.634;2023-10-31T04:50:51;99701.09;;;13.79
78859;BMP280;68210;52.032;4.634;2023-10-31T04:52:51;99707.22;;;14.07
78859;BMP280;68210;52.032;4.634;2023-10-31T04:54:51;99710.78;;;13.98
78859;BMP280;68210;52.032;4.634;2023-10-31T04:56:52;99699.53;;;13.82
78859;BMP280;68210;52.032;4.634;2023-10-31T04:58:52;99707.41;;;13.63
78859;BMP280;68210;52.032;4.634;2023-10-31T05:00:52;99707.38;;;13.73
78859;BMP280;68210;52.032;4.634;2023-10-31T05:02:53;99717.47;;;13.69
78859;BMP280;68210;52.032;4.634;2023-10-31T05:04:53;99720.59;;;13.78
78859;BMP280;68210;52.032;4.634;2023-10-31T05:06:54;99723.66;;;13.80
78859;BMP280;68210;52.032;4.634;2023-10-31T05:08:54;99728.28;;;13.90
78859;BMP280;68210;52.032;4.634;2023-10-31T05:10:54;99720.84;;;14.07
78859;BMP280;68210;52.032;4.634;2023-10-31T05:12:55;99735.69;;;13.96
78859;BMP280;68210;52.032;4.634;2023-10-31T05:14:55;99735.97;;;14.12
78859;BMP280;68210;52.032;4.634;2023-10-31T05:16:56;99735.50;;;14.27
78859;BMP280;68210;52.032;4.634;2023-10-31T05:18:56;99743.66;;;14.30
78859;BMP280;68210;52.032;4.634;2023-10-31T05:20:59;99736.38;;;14.14
78859;BMP280;68210;52.032;4.634;2023-10-31T05:22:59;99743.34;;;14.22
78859;BMP280;68210;52.032;4.634;2023-10-31T05:25:00;99742.19;;;14.19
78859;BMP280;68210;52.032;4.634;2023-10-31T05:27:00;99746.47;;;14.20
78859;BMP280;68210;52.032;4.634;2023-10-31T05:29:00;99742.16;;;14.23
78859;BMP280;68210;52.032;4.634;2023-10-31T05:31:01;99746.97;;;14.01
78859;BMP280;68210;52.032;4.634;2023-10-31T05:33:01;99748.16;;;13.97
78859;BMP280;68210;52.032;4.634;2023-10-31T05:35:02;99754.75;;;13.96
78859;BMP280;68210;52.032;4.634;2023-10-31T05:37:02;99763.31;;;13.98
78859;BMP280;68210;52.032;4.634;2023-10-31T05:39:06;99756.72;;;13.89
78859;BMP280;68210;52.032;4.634;2023-10-31T05:41:08;99760.25;;;13.79
78859;BMP280;68210;52.032;4.634;2023-10-31T05:43:08;99761.41;;;13.81
78859;BMP280;68210;52.032;4.634;2023-10-31T05:45:09;99759.50;;;13.75
78859;BMP280;68210;52.032;4.634;2023-10-31T05:47:09;99772.28;;;13.85
78859;BMP280;68210;52.032;4.634;2023-10-31T05:49:10;99764.50;;;13.94
78859;BMP280;68210;52.032;4.634;2023-10-31T05:51:18;99760.69;;;13.67
78859;BMP280;68210;52.032;4.634;2023-10-31T05:53:18;99765.75;;;13.65
78859;BMP280;68210;52.032;4.634;2023-10-31T05:55:18;99770.47;;;13.54
78859;BMP280;68210;52.032;4.634;2023-10-31T05:57:19;99771.25;;;13.51
78859;BMP280;68210;52.032;4.634;2023-10-31T05:59:20;99773.22;;;13.34
78859;BMP280;68210;52.032;4.634;2023-10-31T06:01:21;99777.50;;;13.31
78859;BMP280;68210;52.032;4.634;2023-10-31T06:03:21;99777.91;;;13.26
78859;BMP280;68210;52.032;4.634;2023-10-31T06:05:21;99782.56;;;13.33
78859;BMP280;68210;52.032;4.634;2023-10-31T06:07:22;99776.38;;;13.18
78859;BMP280;68210;52.032;4.634;2023-10-31T06:09:22;99786.44;;;13.38
78859;BMP280;68210;52.032;4.634;2023-10-31T06:11:22;99793.03;;;13.44
78859;BMP280;68210;52.032;4.634;2023-10-31T06:13:23;99778.66;;;13.51
78859;BMP280;68210;52.032;4.634;2023-10-31T06:15:26;99788.72;;;13.57
78859;BMP280;68210;52.032;4.634;2023-10-31T06:17:26;99785.56;;;13.76
78859;BMP280;68210;52.032;4.634;2023-10-31T06:19:26;99787.88;;;13.81
78859;BMP280;68210;52.032;4.634;2023-10-31T06:21:27;99786.69;;;13.82
78859;BMP280;68210;52.032;4.634;2023-10-31T06:23:27;99789.03;;;13.87
78859;BMP280;68210;52.032;4.634;2023-10-31T06:25:27;99786.72;;;13.71
78859;BMP280;68210;52.032;4.634;2023-10-31T06:27:27;99784.03;;;13.68
78859;BMP280;68210;52.032;4.634;2023-10-31T06:29:28;99795.28;;;13.77
78859;BMP280;68210;52.032;4.634;2023-10-31T06:31:28;99793.31;;;13.84
78859;BMP280;68210;52.032;4.634;2023-10-31T06:33:28;99797.59;;;13.85
78859;BMP280;68210;52.032;4.634;2023-10-31T06:35:29;99808.94;;;13.70
78859;BMP280;68210;52.032;4.634;2023-10-31T06:37:29;99807.41;;;13.55
78859;BMP280;68210;52.032;4.634;2023-10-31T06:39:30;99807.78;;;13.61
78859;BMP280;68210;52.032;4.634;2023-10-31T06:41:30;99820.63;;;13.50
78859;BMP280;68210;52.032;4.634;2023-10-31T06:43:30;99809.78;;;13.43
78859;BMP280;68210;52.032;4.634;2023-10-31T06:45:31;99817.91;;;13.60
78859;BMP280;68210;52.032;4.634;2023-10-31T06:47:31;99819.06;;;13.59
78859;BMP280;68210;52.032;4.634;2023-10-31T06:49:31;99821.81;;;13.45
78859;BMP280;68210;52.032;4.634;2023-10-31T06:51:32;99824.91;;;13.47
78859;BMP280;68210;52.032;4.634;2023-10-31T06:53:32;99827.25;;;13.59
78859;BMP280;68210;52.032;4.634;2023-10-31T06:55:32;99832.31;;;13.54
78859;BMP280;68210;52.032;4.634;2023-10-31T06:57:33;99842.38;;;13.70
78859;BMP280;68210;52.032;4.634;2023-10-31T06:59:34;99844.31;;;13.77
78859;BMP280;68210;52.032;4.634;2023-10-31T07:01:34;99836.91;;;13.81
78859;BMP280;68210;52.032;4.634;2023-10-31T07:03:35;99844.34;;;13.53
78859;BMP280;68210;52.032;4.634;2023-10-31T07:05:35;99843.19;;;13.67
78859;BMP280;68210;52.032;4.634;2023-10-31T07:07:36;99854.00;;;13.85
78859;BMP280;68210;52.032;4.634;2023-10-31T07:09:36;99850.91;;;13.97
78859;BMP280;68210;52.032;4.634;2023-10-31T07:11:37;99855.06;;;14.25
78859;BMP280;68210;52.032;4.634;2023-10-31T07:13:37;99851.06;;;14.47
78859;BMP280;68210;52.032;4.634;2023-10-31T07:15:38;99852.22;;;14.49
78859;BMP280;68210;52.032;4.634;2023-10-31T07:17:39;99858.34;;;14.70
78859;BMP280;68210;52.032;4.634;2023-10-31T07:19:39;99845.69;;;14.97
78859;BMP280;68210;52.032;4.634;2023-10-31T07:21:40;99848.91;;;15.35
78859;BMP280;68210;52.032;4.634;2023-10-31T07:23:40;99852.34;;;15.46
78859;BMP280;68210;52.032;4.634;2023-10-31T07:25:41;99855.97;;;15.73
78859;BMP280;68210;52.032;4.634;2023-10-31T07:27:41;99850.28;;;15.93
78859;BMP280;68210;52.032;4.634;2023-10-31T07:29:42;99871.59;;;15.72
78859;BMP280;68210;52.032;4.634;2023-10-31T07:31:42;99861.44;;;15.73
78859;BMP280;68210;52.032;4.634;2023-10-31T07:33:44;99864.44;;;15.85
78859;BMP280;68210;52.032;4.634;2023-10-31T07:35:45;99869.34;;;15.64
78859;BMP280;68210;52.032;4.634;2023-10-31T07:37:45;99871.69;;;15.62
78859;BMP280;68210;52.032;4.634;2023-10-31T07:39:45;99881.50;;;15.56
78859;BMP280;68210;52.032;4.634;2023-10-31T07:41:46;99878.97;;;15.32
78859;BMP280;68210;52.032;4.634;2023-10-31T07:43:46;99887.75;;;15.06
78859;BMP280;68210;52.032;4.634;2023-10-31T07:45:47;99874.56;;;14.98
78859;BMP280;68210;52.032;4.634;2023-10-31T07:47:47;99887.81;;;14.96
78859;BMP280;68210;52.032;4.634;2023-10-31T07:49:48;99883.16;;;14.89
78859;BMP280;68210;52.032;4.634;2023-10-31T07:51:48;99879.28;;;14.90
78859;BMP280;68210;52.032;4.634;2023-10-31T07:53:48;99877.28;;;14.94
78859;BMP280;68210;52.032;4.634;2023-10-31T07:55:49;99880.78;;;14.95
78859;BMP280;68210;52.032;4.634;2023-10-31T07:57:50;99871.88;;;14.88
78859;BMP280;68210;52.032;4.634;2023-10-31T07:59:50;99884.66;;;15.01
78859;BMP280;68210;52.032;4.634;2023-10-31T08:01:50;99879.94;;;15.12
78859;BMP280;68210;52.032;4.634;2023-10-31T08:03:52;99867.59;;;14.90
78859;BMP280;68210;52.032;4.634;2023-10-31T08:05:52;99879.31;;;15.37
78859;BMP280;68210;52.032;4.634;2023-10-31T08:07:53;99875.41;;;15.42
78859;BMP280;68210;52.032;4.634;2023-10-31T08:09:53;99884.31;;;15.89
78859;BMP280;68210;52.032;4.634;2023-10-31T08:11:53;99881.63;;;16.22
78859;BMP280;68210;52.032;4.634;2023-10-31T08:13:54;99884.44;;;16.15
78859;BMP280;68210;52.032;4.634;2023-10-31T08:15:54;99888.38;;;16.11
78859;BMP280;68210;52.032;4.634;2023-10-31T08:17:54;99893.31;;;15.86
78859;BMP280;68210;52.032;4.634;2023-10-31T08:19:55;99889.44;;;15.83
78859;BMP280;68210;52.032;4.634;2023-10-31T08:21:55;99892.84;;;16.31
78859;BMP280;68210;52.032;4.634;2023-10-31T08:23:55;99887.72;;;16.66
78859;BMP280;68210;52.032;4.634;2023-10-31T08:25:56;99890.84;;;17.20
78859;BMP280;68210;52.032;4.634;2023-10-31T08:27:56;99883.38;;;17.24
78859;BMP280;68210;52.032;4.634;2023-10-31T08:29:57;99881.94;;;18.06
78859;BMP280;68210;52.032;4.634;2023-10-31T08:31:57;99888.66;;;18.40
78859;BMP280;68210;52.032;4.634;2023-10-31T08:33:57;99893.75;;;18.23
78859;BMP280;68210;52.032;4.634;2023-10-31T08:35:58;99898.91;;;18.75
78859;BMP280;68210;52.032;4.634;2023-10-31T08:37:59;99900.25;;;19.37
78859;BMP280;68210;52.032;4.634;2023-10-31T08:39:59;99895.25;;;19.32
78859;BMP280;68210;52.032;4.634;2023-10-31T08:42:03;99901.13;;;19.81
78859;BMP280;68210;52.032;4.634;2023-10-31T08:44:04;99893.88;;;19.87
78859;BMP280;68210;52.032;4.634;2023-10-31T08:46:04;99894.50;;;19.63
78859;BMP280;68210;52.032;4.634;2023-10-31T08:48:05;99907.31;;;19.53
78859;BMP280;68210;52.032;4.634;2023-10-31T08:50:06;99901.97;;;19.62
78859;BMP280;68210;52.032;4.634;2023-10-31T08:52:08;99899.63;;;19.92
78859;BMP280;68210;52.032;4.634;2023-10-31T08:54:09;99899.31;;;19.59
78859;BMP280;68210;52.032;4.634;2023-10-31T08:56:09;99906.91;;;19.04
78859;BMP280;68210;52.032;4.634;2023-10-31T08:58:13;99906.53;;;18.87
78859;BMP280;68210;52.032;4.634;2023-10-31T09:00:14;99919.19;;;18.81
78859;BMP280;68210;52.032;4.634;2023-10-31T09:02:14;99916.47;;;18.23
78859;BMP280;68210;52.032;4.634;2023-10-31T09:04:14;99924.41;;;17.95
78859;BMP280;68210;52.032;4.634;2023-10-31T09:06:15;99925.78;;;17.84
78859;BMP280;68210;52.032;4.634;2023-10-31T09:08:15;99927.09;;;17.53
78859;BMP280;68210;52.032;4.634;2023-10-31T09:10:16;99926.19;;;17.11
78859;BMP280;68210;52.032;4.634;2023-10-31T09:12:16;99929.44;;;17.02
78859;BMP280;68210;52.032;4.634;2023-10-31T09:14:16;99932.69;;;16.94
78859;BMP280;68210;52.032;4.634;2023-10-31T09:16:16;99948.41;;;16.87
78859;BMP280;68210;52.032;4.634;2023-10-31T09:18:17;99950.91;;;16.74
78859;BMP280;68210;52.032;4.634;2023-10-31T09:20:17;99944.31;;;16.42
78859;BMP280;68210;52.032;4.634;2023-10-31T09:22:17;99954.50;;;16.39
78859;BMP280;68210;52.032;4.634;2023-10-31T09:24:18;99956.25;;;16.55
78859;BMP280;68210;52.032;4.634;2023-10-31T09:26:20;99957.75;;;16.27
78859;BMP280;68210;52.032;4.634;2023-10-31T09:28:20;99963.97;;;16.31
78859;BMP280;68210;52.032;4.634;2023-10-31T09:30:20;99966.97;;;16.43
78859;BMP280;68210;52.032;4.634;2023-10-31T09:32:21;99960.13;;;16.25
78859;BMP280;68210;52.032;4.634;2023-10-31T09:34:21;99960.03;;;16.32
78859;BMP280;68210;52.032;4.634;2023-10-31T09:36:21;99971.88;;;16.22
78859;BMP280;68210;52.032;4.634;2023-10-31T09:38:22;99977.13;;;16.03
78859;BMP280;68210;52.032;4.634;2023-10-31T09:40:22;99975.16;;;16.03
78859;BMP280;68210;52.032;4.634;2023-10-31T09:42:22;99969.38;;;16.38
78859;BMP280;68210;52.032;4.634;2023-10-31T09:44:23;99973.63;;;16.72
78859;BMP280;68210;52.032;4.634;2023-10-31T09:46:23;99977.13;;;17.05
78859;BMP280;68210;52.032;4.634;2023-10-31T09:48:23;99971.31;;;17.00
78859;BMP280;68210;52.032;4.634;2023-10-31T09:50:24;99975.72;;;16.94
78859;BMP280;68210;52.032;4.634;2023-10-31T09:52:25;99973.06;;;17.16
78859;BMP280;68210;52.032;4.634;2023-10-31T09:54:25;99965.84;;;17.29
78859;BMP280;68210;52.032;4.634;2023-10-31T09:56:26;99967.13;;;17.21
78859;BMP280;68210;52.032;4.634;2023-10-31T09:58:27;99983.19;;;17.19
78859;BMP280;68210;52.032;4.634;2023-10-31T10:00:27;99978.25;;;17.37
78859;BMP280;68210;52.032;4.634;2023-10-31T10:02:28;99974.94;;;17.49
78859;BMP280;68210;52.032;4.634;2023-10-31T10:04:29;99984.41;;;17.44
78859;BMP280;68210;52.032;4.634;2023-10-31T10:06:29;99975.81;;;17.42
78859;BMP280;68210;52.032;4.634;2023-10-31T10:08:29;99986.84;;;17.39
78859;BMP280;68210;52.032;4.634;2023-10-31T10:10:30;99982.13;;;17.39
78859;BMP280;68210;52.032;4.634;2023-10-31T10:12:34;99999.44;;;17.33
78859;BMP280;68210;52.032;4.634;2023-10-31T10:14:34;100002.09;;;17.40
78859;BMP280;68210;52.032;4.634;2023-10-31T10:16:35;99996.16;;;17.45
78859;BMP280;68210;52.032;4.634;2023-10-31T10:18:36;99999.28;;;17.43
78859;BMP280;68210;52.032;4.634;2023-10-31T10:23:03;100009.28;;;16.98
78859;BMP280;68210;52.032;4.634;2023-10-31T10:25:08;100014.22;;;17.13
78859;BMP280;68210;52.032;4.634;2023-10-31T10:27:08;100017.06;;;17.02
78859;BMP280;68210;52.032;4.634;2023-10-31T10:29:09;100019.53;;;16.94
78859;BMP280;68210;52.032;4.634;2023-10-31T10:31:14;100020.59;;;16.70
78859;BMP280;68210;52.032;4.634;2023-10-31T10:33:15;100024.31;;;16.50
78859;BMP280;68210;52.032;4.634;2023-10-31T10:35:16;100024.19;;;16.27
78859;BMP280;68210;52.032;4.634;2023-10-31T10:37:18;100023.13;;;16.08
78859;BMP280;68210;52.032;4.634;2023-10-31T10:39:20;100014.28;;;15.93
78859;BMP280;68210;52.032;4.634;2023-10-31T10:41:23;100027.69;;;15.78
78859;BMP280;68210;52.032;4.634;2023-10-31T10:43:26;100019.84;;;15.86
78859;BMP280;68210;52.032;4.634;2023-10-31T10:45:27;100032.34;;;15.80
78859;BMP280;68210;52.032;4.634;2023-10-31T10:47:28;100023.03;;;15.75
78859;BMP280;68210;52.032;4.634;2023-10-31T10:49:34;100037.19;;;15.63
78859;BMP280;68210;52.032;4.634;2023-10-31T10:51:58;100034.41;;;15.66
78859;BMP280;68210;52.032;4.634;2023-10-31T10:54:09;100028.28;;;15.49
78859;BMP280;68210;52.032;4.634;2023-10-31T10:56:16;100029.50;;;15.44
78859;BMP280;68210;52.032;4.634;2023-10-31T10:58:34;100040.03;;;15.42
78859;BMP280;68210;52.032;4.634;2023-10-31T11:00:37;100035.06;;;15.30
78859;BMP280;68210;52.032;4.634;2023-10-31T11:02:39;100034.63;;;15.39
78859;BMP280;68210;52.032;4.634;2023-10-31T11:04:41;100040.44;;;15.44
78859;BMP280;68210;52.032;4.634;2023-10-31T11:06:42;100043.56;;;15.46
78859;BMP280;68210;52.032;4.634;2023-10-31T11:08:44;100041.25;;;15.34
78859;BMP280;68210;52.032;4.634;2023-10-31T11:10:46;100043.19;;;15.41
78859;BMP280;68210;52.032;4.634;2023-10-31T11:12:47;100045.81;;;15.58
78859;BMP280;68210;52.032;4.634;2023-10-31T11:14:48;100043.81;;;15.62
78859;BMP280;68210;52.032;4.634;2023-10-31T11:16:54;100056.75;;;15.54
78859;BMP280;68210;52.032;4.634;2023-10-31T11:18:55;100047.34;;;15.59
78859;BMP280;68210;52.032;4.634;2023-10-31T11:20:56;100052.41;;;15.60
78859;BMP280;68210;52.032;4.634;2023-10-31T11:22:56;100052.44;;;15.53
78859;BMP280;68210;52.032;4.634;2023-10-31T11:25:04;100054.47;;;15.46
78859;BMP280;68210;52.032;4.634;2023-10-31T11:27:06;100065.16;;;15.17
78859;BMP280;68210;52.032;4.634;2023-10-31T11:29:06;100059.34;;;15.01
78859;BMP280;68210;52.032;4.634;2023-10-31T11:31:08;100061.66;;;15.13
78859;BMP280;68210;52.032;4.634;2023-10-31T11:33:16;100070.22;;;15.08
78859;BMP280;68210;52.032;4.634;2023-10-31T11:35:21;100067.91;;;15.17
78859;BMP280;68210;52.032;4.634;2023-10-31T11:37:27;100059.69;;;15.20